Tiempo atmosférico en la estación meteorológica de Villanueva De Córdoba, Córdoba (740 m.)



Fecha
DESCASC
Temp. máxima en grados centígrados (hora)
DESCASC
Temp. mínima en grados centígrados (hora)
DESCASC
Temp. media en grados centígrados
DESCASC
Racha de viento máxima en m/sg (hora)
DESCASC
Velocidad máxima media en intervalos de 10 minutos(hora)
DESCASC
Precipitaciones diarias en mm
DESCASC
Precipitaciones de 00:00 a 06:00 en mm
DESCASC
Precipitaciones de 06:00 a 12:00 en mm
DESCASC
Precipitaciones de 12:00 a 18:00 en mm
DESCASC
Precipitaciones de 18:00 a 24:00 en mm
DESCASC
16-01-2020 15.3 (14:40) 4.8 (08:30) 10.1 7.78 (16:40) 3.89 (14:50) 0 0 0 0 0
15-01-2020 13.2 (14:30) 2.7 (08:10) 7.9 8.61 (13:00) 3.89 (12:40) 0 0 0 0 0
14-01-2020 10.8 (16:10) 2.2 (07:00) 6.5 6.39 (13:20) 3.06 (13:00) 0 0 0 0 0
13-01-2020 12.1 (15:50) 2.9 (08:50) 7.5 6.11 (01:20) 3.33 (13:10) 0 0 0 0 0
12-01-2020 13.1 (16:00) 3.6 (00:00) 8.4 5.28 (13:10) 2.22 (15:00) 0 0 0 0 0
11-01-2020 12.4 (15:20) 1.5 (00:00) 6.9 6.94 (02:00) 3.33 (02:10) 0 0 0 0 0
10-01-2020 11.2 (14:50) 4.9 (00:00) 8 10.28 (17:20) 4.72 (17:20) 0 0 0 0 0
09-01-2020 13.8 (14:30) 4.3 (00:00) 9.1 6.11 (15:30) 3.33 (14:40) 0 0 0 0 0
08-01-2020 17.8 (13:50) 6 (00:00) 11.9 4.17 (15:30) 2.5 (08:50) 0 0 0 0 0
07-01-2020 16.1 (15:40) 4.9 (00:00) 10.5 6.11 (05:20) 2.5 (22:30) 0 0 0 0 0
06-01-2020 14.2 (16:00) 5.4 (00:00) 9.8 4.72 (22:20) 2.5 (22:20) 0 0 0 0 0
05-01-2020 13.5 (16:10) 3.7 (00:00) 8.6 4.44 (09:00) 1.67 (02:00) 0.2 0 0.2 0 0
04-01-2020 12 (16:00) 0.6 (00:00) 6.3 4.72 (15:40) 2.22 (15:30) 0.2 0 0.2 0 0
03-01-2020 9 (14:30) 4 (00:00) 6.5 6.94 (13:50) 3.61 (13:20) 0.2 0 0.2 0 0
02-01-2020 15.9 (15:50) 5.2 (00:00) 10.5 5.56 (03:10) 2.5 (08:20) 0 0 0 0 0
01-01-2020 18 (15:10) 6.4 (00:00) 12.2 5.28 (06:20) 1.94 (05:40) 0 0 0 0 0
31-12-2019 16.6 (15:40) 5.2 (00:00) 10.9 4.17 (14:50) 2.22 (14:50) 0 0 0 0 0
30-12-2019 16.5 (14:50) 6.4 (00:00) 11.5 4.17 (16:40) 2.22 (17:00) 0 0 0 0 0
29-12-2019 19.1 (14:20) 7.9 (00:00) 13.5 4.44 (06:50) 2.78 (06:50) 0 0 0 0 0
28-12-2019 21.3 (14:40) 9.9 (00:00) 15.6 5 (11:40) 2.5 (04:00) 0 0 0 0 0
27-12-2019 20 (15:40) 9.5 (00:00) 14.8 7.22 (04:20) 3.33 (04:20) 0 0 0 0 0
26-12-2019 18.5 (12:30) 9.6 (00:00) 14.1 5.83 (15:00) 2.78 (06:20) 0 0 0 0 0
25-12-2019 21.1 (14:00) 10.9 (00:00) 16 5 (04:50) 2.78 (04:40) 0 0 0 0 0
24-12-2019 21.3 (16:10) 9.7 (00:00) 15.5 6.11 (11:30) 3.06 (11:30) 0 0 0 0 0
23-12-2019 16.1 (16:10) 6.3 (00:00) 11.2 6.67 (00:10) 4.17 (00:10) 0 0 0 0 0
22-12-2019 14.2 (16:30) 8.3 (00:00) 11.3 14.72 (00:50) 8.33 (04:50) 0 0 0 0 0
21-12-2019 14.7 (16:20) 10.2 (00:00) 12.4 20 (17:20) 10.83 (17:30) 7.2 3.4 0.8 3 0

Gráficas

Temp. máximas Temp. mínimas Temp. medias Precipitaciones Rachas de viento máximas Velocidades máximas media en intervalos de 10 minutos

Datos horarios

Fecha y hora oficial Temperatura (ºC) Velocidad del viento (km/h) Dirección del viento Racha (km/h) Dirección de racha Precipitación (mm) Presión (hPa) Tendencia (hPa) Humedad (%)
2020-01-19 23:00:00 2.3 22 Nordeste 66 Nordeste 0 932.5 -0.2 81
2020-01-19 22:00:00 2.7 19 Nordeste 50 Nordeste 0 932.7 0.5 80
2020-01-19 21:00:00 2.5 25 Nordeste 54 Nordeste 0 932.6 0.8 83
2020-01-19 20:00:00 2.8 8 Norte 34 Nordeste 0 932.7 1.4 86
2020-01-19 19:00:00 3.2 14 Nordeste 33 Norte 0 932.2 0.9 85
2020-01-19 18:00:00 4.6 19 Norte 54 Nordeste 0 931.8 0.4 75
2020-01-19 17:00:00 6.3 18 Norte 47 Norte 0 931.3 -0.6 62
2020-01-19 16:00:00 6.3 13 Norte 42 Norte 0 931.3 -1.3 70
2020-01-19 15:00:00 6.3 18 Norte 39 Norte 0 931.4 -1.9 77
2020-01-19 14:00:00 6.5 15 Norte 37 Norte 0 931.9 -1.5 80
2020-01-19 13:00:00 6.4 17 Norte 37 Norte 0 932.6 -0.4 78
2020-01-19 12:00:00 5.9 11 Norte 26 Noroeste 0 933.3 0.8 90
2020-01-19 11:00:00 4.8 10 Norte 29 Noroeste 0 933.4 0.9 93
2020-01-19 10:00:00 4.7 18 Noroeste 32 Noroeste 0 933 0.4 93
2020-01-19 09:00:00 4.9 7 Norte 26 Noroeste 0 932.5 0 93
2020-01-19 08:00:00 5 13 Norte 29 Norte 0 932.5 -0.2 91
2020-01-19 07:00:00 5.3 14 Norte 36 Noroeste 0 932.6 -0.9 91
2020-01-19 06:00:00 5.2 13 Noroeste 32 Norte 0 932.5 -1.6 91
2020-01-19 05:00:00 5.6 14 Noroeste 33 Noroeste 0 932.7 -1.9 90
2020-01-19 04:00:00 6.4 14 Noroeste 30 Noroeste 0 933.5 -1.9 89
2020-01-19 03:00:00 6.5 15 Noroeste 39 Noroeste 0 934.1 -2.4 88
2020-01-19 02:00:00 7.1 17 Oeste 33 Oeste 0 934.6 -1.6 84
2020-01-19 01:00:00 7.6 13 Oeste 36 Oeste 0 935.4 -1.1 84
2020-01-19 00:00:00 8.6 17 Noroeste 47 Noroeste 0 936.5 0.3 87
2020-01-18 23:00:00 9.3 18 Oeste 36 Oeste 0 936.2 -1 94
2020-01-18 22:00:00 9.4 10 Oeste 32 Sudoeste 0 936.5 -1.2 94
2020-01-18 21:00:00 9.5 16 Sudoeste 33 Sudoeste 0 936.2 -1.8 94
2020-01-18 20:00:00 9.6 16 Sudoeste 29 Sudoeste 0.2 937.2 -1.8 94
2020-01-18 19:00:00 9.2 14 Sudoeste 28 Sudoeste 0 937.7 -1.8 94
2020-01-18 18:00:00 8.9 14 Sudoeste 28 Sudoeste 0 938 -1.8 94
2020-01-18 17:00:00 8.7 16 Sudoeste 30 Sur 0.2 939 -1.6 94
2020-01-18 16:00:00 8.2 14 Sur 29 Sur 0.4 939.5 -2.3 93
2020-01-18 15:00:00 7.9 16 Sur 38 Sudoeste 0.2 939.8 -3 93
2020-01-18 14:00:00 7.8 19 Sur 37 Sudoeste 0.4 940.6 -2.8 93
2020-01-18 13:00:00 7.4 17 Sur 36 Sur 1.4 941.8 -1.5 93
2020-01-18 12:00:00 7.5 15 Sur 32 Sudeste 1.2 942.8 -0.1 93
2020-01-18 11:00:00 8.1 11 Sudeste 21 Sudeste 0.4 943.4 0.1 92
2020-01-18 10:00:00 7.7 7 Sudeste 14 Sur 0.4 943.3 0.6 92
2020-01-18 09:00:00 7.5 8 Sur 19 Este 2 942.9 0.6 90
2020-01-18 08:00:00 8 9 Sur 23 Sur 0.8 943.3 0.5 88
2020-01-18 07:00:00 7.9 10 Sudoeste 16 Sudoeste 0 942.7 -0.7 86
2020-01-18 06:00:00 7.8 7 Sur 13 Sur 0 942.3 -1.4 84
2020-01-18 05:00:00 7.9 8 Sur 13 Sur 0 942.8 -1.1 84
2020-01-18 04:00:00 7.8 6 Sudoeste 8 Sudoeste 0 943.4 -1.1 82
2020-01-18 03:00:00 7.5 5 Sudoeste 10 Oeste 0 943.7 -0.8 83
2020-01-18 02:00:00 7.2 5 Sur 10 Sur 0 943.9 -0.9 84
2020-01-18 01:00:00 6.9 5 Sur 8 Sur 0 944.5 -0.7 83
2020-01-18 00:00:00 8.2 5 Sudeste 14 Sudeste 0 944.5 -0.8 80
2020-01-17 23:00:00 8 5 Nordeste 6 Este 0 944.8 0.1 82
2020-01-17 22:00:00 8.1 0 Calma 5 Noroeste 0 945.2 0.8 81
2020-01-17 21:00:00 8.5 3 Noroeste 5 Noroeste 0 945.3 1.3 79
2020-01-17 20:00:00 8.4 3 Norte 7 Norte 0 944.7 0.8 78
2020-01-17 19:00:00 9.4 4 Noroeste 13 Noroeste 0 944.4 0.7 70
2020-01-17 18:00:00 11.2 6 Noroeste 20 Noroeste 0 944 -0.2 65
2020-01-17 17:00:00 11.8 9 Noroeste 18 Noroeste 0 943.9 -0.6 60
2020-01-17 16:00:00 12.4 13 Noroeste 22 Noroeste 0 943.7 -1.4 56
2020-01-17 15:00:00 13.1 13 Noroeste 23 Noroeste 0 944.2 -1.5 56
2020-01-17 14:00:00 12.4 7 Noroeste 18 Oeste 0 944.5 -0.8 61
2020-01-17 13:00:00 12.4 9 Oeste 23 Noroeste 0 945.1 0.4 64
2020-01-17 12:00:00 10.6 10 Noroeste 19 Oeste 0 945.7 2 73
2020-01-17 11:00:00 10.1 8 Sudoeste 15 Oeste 0 945.3 2 82
2020-01-17 10:00:00 8.3 6 Sur 13 Sudeste 0 944.7 2 88
2020-01-17 09:00:00 6.4 9 Sur 16 Sur 0 943.7 1.3 87
2020-01-17 08:00:00 7.2 8 Sur 13 Sur 0 943.3 1.1 87
2020-01-17 07:00:00 7.1 6 Sur 17 Sur 0 942.7 0.6 87
2020-01-17 06:00:00 6.9 8 Sur 15 Sudoeste 0 942.4 0.5 84
2020-01-17 05:00:00 7.5 5 Sudeste 10 Sudeste 0 942.2 0.2 76
2020-01-17 04:00:00 7.7 4 Este 18 Sur 0 942.1 -0.2 68
2020-01-17 03:00:00 7.6 9 Sur 16 Sur 0 941.9 -0.2 64
2020-01-17 02:00:00 7.5 6 Sur 18 Sudoeste 0 942 0.3 61
2020-01-17 01:00:00 8.1 9 Sudoeste 23 Sudoeste 0 942.3 0.9 55
2020-01-17 00:00:00 8.2 12 Sudoeste 23 Sudoeste 0 942.1 1 55
2020-01-16 23:00:00 6.9 10 Sudoeste 17 Sudoeste 0 941.7 1 60
2020-01-16 22:00:00 6.8 10 Sudoeste 17 Sur 0 941.4 1.3 60
2020-01-16 21:00:00 6.8 8 Sudoeste 15 Sur 0 941.1 1.1 59
2020-01-16 20:00:00 8.4 7 Sudoeste 20 Sudoeste 0 940.7 0.9 54
2020-01-16 19:00:00 9.5 8 Sur 18 Sur 0 940.1 0.3 53
2020-01-16 18:00:00 12.6 8 Sur 21 Sur 0 940 0 43
2020-01-16 17:00:00 13.9 13 Sudoeste 28 Sudoeste 0 939.8 -0.6 40
2020-01-16 16:00:00 14.8 12 Sudoeste 26 Sudoeste 0 939.8 -1.2 39
2020-01-16 15:00:00 15 14 Sur 26 Sudoeste 0 940 -1.4 38
2020-01-16 14:00:00 15 12 Sur 24 Sudoeste 0 940.4 -1 38
2020-01-16 13:00:00 14.5 11 Sur 25 Sur 0 941 0 38
2020-01-16 12:00:00 13 10 Sur 21 Sudeste 0 941.4 0.7 48
2020-01-16 11:00:00 10.8 10 Sur 19 Sur 0 941.4 1 56
2020-01-16 10:00:00 8.1 8 Sur 18 Sudeste 0 941 0.9 67
2020-01-16 09:00:00 5 8 Sudeste 15 Sudeste 0 940.7 0.7 80
2020-01-16 08:00:00 5.2 8 Sudeste 15 Sudeste 0 940.4 0.2 83
2020-01-16 07:00:00 5.5 10 Sudeste 17 Sudeste 0 940.1 -0.4 85
2020-01-16 06:00:00 5.5 8 Sudeste 18 Este 0 940 -0.5 89
2020-01-16 05:00:00 5.8 8 Sur 15 Sur 0 940.2 -0.4 89
2020-01-16 04:00:00 6.3 9 Sur 14 Sur 0 940.5 -0.3 87
2020-01-16 03:00:00 6.9 8 Sur 14 Sudeste 0 940.5 -0.4 84
2020-01-16 02:00:00 8.1 9 Sur 17 Sudeste 0 940.6 -0.2 81
2020-01-16 01:00:00 8.3 8 Sur 17 Sur 0 940.8 0 79
2020-01-16 00:00:00 8.4 8 Sudeste 16 Sur 0 940.9 0.3 81
2020-01-15 23:00:00 8.4 9 Sudeste 16 Sudeste 0 940.8 0.3 84
2020-01-15 22:00:00 8.5 6 Sudeste 12 Sudeste 0 940.8 0.6 83
2020-01-15 21:00:00 8.2 6 Sur 13 Sur 0 940.6 0.8 81
2020-01-15 20:00:00 8.2 7 Sudeste 13 Sur 0 940.5 1.2 77
2020-01-15 19:00:00 9.4 7 Sudeste 17 Sudoeste 0 940.2 1.1 73
2020-01-15 18:00:00 10.3 9 Sudeste 17 Sudeste 0 939.8 0.8 66
2020-01-15 17:00:00 11.5 8 Sur 18 Sur 0 939.3 0.2 60
2020-01-15 16:00:00 12.3 7 Sur 21 Sudoeste 0 939.1 -0.4 58
2020-01-15 15:00:00 11.9 12 Sudoeste 26 Sudoeste 0 939 -0.9 57
2020-01-15 14:00:00 13 13 Sudoeste 29 Sur 0 939.1 -0.2 52
2020-01-15 13:00:00 12.1 13 Sur 31 Sur 0 939.5 1.1 49
2020-01-15 12:00:00 10.4 10 Sur 22 Sur 0 939.9 2 62
2020-01-15 11:00:00 7.9 14 Sur 26 Sudeste 0 939.3 1.8 70
2020-01-15 10:00:00 4.7 9 Sur 20 Sur 0 938.4 1.5 86
2020-01-15 09:00:00 2.7 12 Sur 22 Sur 0 937.9 1.4 88
2020-01-15 08:00:00 2.8 12 Sudeste 22 Sudeste 0 937.5 0.8 88
2020-01-15 07:00:00 2.8 10 Sudeste 21 Sur 0 936.9 -0.1 88
2020-01-15 06:00:00 3.4 12 Sur 21 Sudeste 0 936.5 -0.5 87
2020-01-15 05:00:00 3.6 11 Sur 20 Sur 0 936.7 -0.4 86
2020-01-15 04:00:00 3.7 12 Sur 22 Sur 0 937 -0.1 84
2020-01-15 03:00:00 4.3 12 Sur 22 Sur 0 937 -0.3 83
2020-01-15 02:00:00 4.9 12 Sur 19 Sur 0 937.1 -0.1 81
2020-01-15 01:00:00 5.1 10 Sur 18 Sur 0 937.1 0.1 80
2020-01-15 00:00:00 5 9 Sur 17 Sudeste 0 937.3 0.3 78
2020-01-14 23:00:00 4.8 7 Sur 13 Sur 0 937.2 0.5 78
2020-01-14 22:00:00 5.2 6 Sur 13 Sudeste 0 937 0.5 77
2020-01-14 21:00:00 5.7 7 Sur 13 Sur 0 937 0.9 76
2020-01-14 20:00:00 6 7 Sur 17 Sur 0 936.7 1.1 77
2020-01-14 19:00:00 6.3 9 Sur 18 Sur 0 936.5 0.8 74
2020-01-14 18:00:00 8.8 10 Sur 17 Sur 0 936.1 0.3 65
2020-01-14 17:00:00 10 6 Sur 11 Sudoeste 0 935.6 -0.7 59
2020-01-14 16:00:00 10.4 5 Sudoeste 16 Sudoeste 0 935.7 -1.4 58
2020-01-14 15:00:00 10 6 Sur 17 Sudoeste 0 935.8 -1.6 57
2020-01-14 14:00:00 9.4 7 Sudoeste 23 Sudoeste 0 936.3 -0.9 58
2020-01-14 13:00:00 9 11 Sudoeste 21 Sudoeste 0 937.1 0.5 63
2020-01-14 12:00:00 8.5 10 Sudoeste 19 Sudoeste 0 937.4 1.1 65
2020-01-14 11:00:00 7.6 6 Sur 11 Sur 0 937.2 0.8 74
2020-01-14 10:00:00 5.1 3 Sur 9 Sudeste 0 936.6 0.6 92
2020-01-14 09:00:00 3 6 Sudeste 10 Sudeste 0 936.3 0.5 92
2020-01-14 08:00:00 3 6 Sudeste 11 Sudeste 0 936.4 0.5 92
2020-01-14 07:00:00 2.2 6 Sur 9 Sur 0 936 -0.3 92
2020-01-14 06:00:00 2.5 6 Sur 8 Sur 0 935.8 -0.8 91
2020-01-14 05:00:00 2.8 5 Sur 13 Este 0 935.9 -0.9 90
2020-01-14 04:00:00 3.1 6 Sur 9 Sur 0 936.3 -1.1 91
2020-01-14 03:00:00 2.8 6 Sur 10 Sur 0 936.6 -0.8 89
2020-01-14 02:00:00 3.3 5 Sur 8 Sur 0 936.8 -0.6 88
2020-01-14 01:00:00 3.4 5 Sur 9 Sur 0 937.4 -0.2 86
2020-01-14 00:00:00 3.6 6 Sur 9 Sur 0 937.4 -0.4 83
2020-01-13 23:00:00 3.9 7 Sur 12 Sudeste 0 937.4 -0.4 83
2020-01-13 22:00:00 4.4 5 Sur 9 Sur 0 937.6 0 82
2020-01-13 21:00:00 4.6 6 Sudeste 10 Sudeste 0 937.8 0.3 79
2020-01-13 20:00:00 5.5 5 Sudeste 11 Sur 0 937.8 0.4 76
2020-01-13 19:00:00 6.8 5 Noroeste 11 Noroeste 0 937.6 0.2 71
2020-01-13 18:00:00 8.8 5 Norte 15 Norte 0 937.5 -0.1 65
2020-01-13 17:00:00 11.6 5 Sudoeste 14 Oeste 0 937.4 -1.3 48
2020-01-13 16:00:00 12 4 Sudoeste 17 Sur 0 937.4 -2 47
2020-01-13 15:00:00 11.3 8 Sudoeste 19 Sudoeste 0 937.6 -2.5 51
2020-01-13 14:00:00 10.8 10 Sudoeste 21 Sudoeste 0 938.7 -1.6 51
2020-01-13 13:00:00 10.8 10 Sudoeste 21 Sudoeste 0 939.4 -0.2 56
2020-01-13 12:00:00 9.7 8 Sudoeste 18 Sur 0 940.1 0.8 59
2020-01-13 11:00:00 8.3 5 Sur 13 Sudeste 0 940.3 1.1 62
2020-01-13 10:00:00 5.8 4 Sur 10 Sudeste 0 939.6 0.6 71
2020-01-13 09:00:00 3.1 4 Sudeste 10 Sudeste 0 939.3 0.3 79
2020-01-13 08:00:00 3.2 5 Sudeste 10 Sudeste 0 939.2 -0.2 77
2020-01-13 07:00:00 3.4 6 Sudeste 13 Sudeste 0 939 -1 73
2020-01-13 06:00:00 3.9 7 Sudeste 17 Este 0 939 -1.4 73
2020-01-13 05:00:00 4.4 6 Sudeste 10 Sudeste 0 939.4 -1 70
2020-01-13 04:00:00 4.6 6 Sudeste 10 Sudeste 0 940 -1.3 69
2020-01-13 03:00:00 4.8 6 Sur 11 Sudeste 0 940.4 -1.4 68
2020-01-13 02:00:00 5.1 6 Sudeste 22 Este 0 940.4 -1.4 68
2020-01-13 01:00:00 5 8 Este 20 Este 0 941.3 -0.6 67
2020-01-13 00:00:00 5.1 6 Este 9 Nordeste 0 941.8 0 64
2020-01-12 23:00:00 4.9 6 Nordeste 19 Nordeste 0 941.8 0 68
2020-01-12 22:00:00 5.3 7 Norte 12 Norte 0 941.9 0.4 67
2020-01-12 21:00:00 6 6 Norte 12 Norte 0 941.8 0.7 65
2020-01-12 20:00:00 6.8 7 Noroeste 14 Noroeste 0 941.8 0.7 61
2020-01-12 19:00:00 7.6 7 Noroeste 12 Noroeste 0 941.5 0.3 59
2020-01-12 18:00:00 10.6 5 Noroeste 12 Noroeste 0 941.1 -0.4 46
2020-01-12 17:00:00 11.8 4 Noroeste 13 Noroeste 0 941.1 -1 37
2020-01-12 16:00:00 13.1 3 Sudoeste 14 Norte 0 941.2 -1.9 35
2020-01-12 15:00:00 12 8 Noroeste 14 Oeste 0 941.5 -2.4 41
2020-01-12 14:00:00 11.5 5 Noroeste 19 Oeste 0 942.1 -1.8 44
2020-01-12 13:00:00 10.5 6 Noroeste 15 Norte 0 943.1 -0.3 50
2020-01-12 12:00:00 10 4 Noroeste 10 Norte 0 943.9 0.9 55
2020-01-12 11:00:00 8.9 4 Noroeste 9 Noroeste 0 943.9 1.1 60
2020-01-12 10:00:00 6.8 3 Sudoeste 5 Oeste 0 943.4 0.7 73
2020-01-12 09:00:00 3.6 3 Oeste 6 Oeste 0 943 0.4 78
2020-01-12 08:00:00 3.7 4 Oeste 6 Sudoeste 0 942.8 0 77
2020-01-12 07:00:00 3.8 5 Sudoeste 8 Sur 0 942.7 -0.3 76
2020-01-12 06:00:00 4.1 6 Sur 8 Sur 0 942.6 -0.2 75
2020-01-12 05:00:00 4.6 4 Sur 6 Sur 0 942.8 0 72
2020-01-12 04:00:00 4.6 0 Calma 6 Sur 0 943 0 71
2020-01-12 03:00:00 5.6 3 Sur 4 Sur 0 942.8 -0.3 68
2020-01-12 02:00:00 5.6 4 Sur 5 Sur 0 942.8 -0.3 68
2020-01-12 01:00:00 5.8 4 Sudeste 6 Sudeste 0 943 0 68
2020-01-12 00:00:00 6 3 Sudeste 17 Sudeste 0 943.1 0.3 68
2020-01-11 23:00:00 5.8 3 Sur 6 Sudoeste 0 943.1 0.6 68
2020-01-11 22:00:00 5.9 4 Sur 10 Sur 0 943 0.9 68
2020-01-11 21:00:00 6.5 6 Sudeste 10 Sudeste 0 942.8 1.2 66
2020-01-11 20:00:00 6.8 4 Sudeste 17 Norte 0 942.5 1 64
2020-01-11 19:00:00 8.3 5 Norte 11 Noroeste 0 942.1 0.8 59
2020-01-11 18:00:00 11 4 Este 11 Nordeste 0 941.6 0.2 45
2020-01-11 17:00:00 11.8 4 Este 12 Este 0 941.5 -0.4 40
2020-01-11 16:00:00 12 5 Nordeste 15 Este 0 941.3 -1.5 42
2020-01-11 15:00:00 12.2 5 Este 17 Este 0 941.4 -1.8 42
2020-01-11 14:00:00 11.4 7 Nordeste 17 Este 0 941.9 -1.1 45
2020-01-11 13:00:00 10.7 9 Nordeste 17 Nordeste 0 942.8 0.3 46
2020-01-11 12:00:00 9.8 7 Este 17 Este 0 943.2 1.3 49
2020-01-11 11:00:00 8 7 Nordeste 15 Nordeste 0 943 1.4 53
2020-01-11 10:00:00 5.1 7 Nordeste 14 Nordeste 0 942.5 1.1 65
2020-01-11 09:00:00 1.8 4 Norte 9 Norte 0 941.9 0.7 75
2020-01-11 08:00:00 1.7 5 Norte 9 Norte 0 941.6 0.4 76
2020-01-11 07:00:00 1.9 4 Noroeste 14 Este 0 941.4 0.1 74
2020-01-11 06:00:00 1.9 6 Norte 9 Norte 0 941.2 0 75
2020-01-11 05:00:00 1.8 3 Oeste 12 Norte 0 941.2 0.3 73
2020-01-11 04:00:00 2.8 6 Norte 11 Noroeste 0 941.3 0 71
2020-01-11 03:00:00 4.2 7 Nordeste 23 Nordeste 0 941.2 -0.2 65
2020-01-11 02:00:00 5.1 10 Nordeste 25 Nordeste 0 940.9 -0.3 61
2020-01-11 01:00:00 4 5 Nordeste 19 Nordeste 0 941.3 0.1 64
2020-01-11 00:00:00 6.3 11 Nordeste 32 Nordeste 0 941.4 0.6 54
2020-01-10 23:00:00 4.9 6 Nordeste 17 Nordeste 0 941.2 0.7 60
2020-01-10 22:00:00 5.6 9 Nordeste 20 Nordeste 0 941.2 1.4 58
2020-01-10 21:00:00 5.5 9 Nordeste 17 Nordeste 0 940.8 1.5 60
2020-01-10 20:00:00 5.9 2 Sur 22 Nordeste 0 940.5 1.9 58
2020-01-10 19:00:00 7.2 11 Nordeste 31 Este 0 939.8 1.6 51
2020-01-10 18:00:00 8.6 10 Nordeste 37 Nordeste 0 939.3 1 47
2020-01-10 17:00:00 10.1 14 Nordeste 33 Nordeste 0 938.6 -0.5 47
2020-01-10 16:00:00 10.8 15 Nordeste 33 Este 0 938.2 -1.2 42
2020-01-10 15:00:00 11.2 13 Nordeste 31 Nordeste 0 938.3 -1.6 47
2020-01-10 14:00:00 10.7 11 Nordeste 27 Nordeste 0 939.1 -0.7 53
2020-01-10 13:00:00 9.9 13 Nordeste 25 Nordeste 0 939.4 -0.1 61
2020-01-10 12:00:00 8.4 12 Nordeste 23 Nordeste 0 939.9 1.2 69
2020-01-10 11:00:00 6.8 7 Nordeste 20 Norte 0 939.8 1.4 94
2020-01-10 10:00:00 6.6 9 Norte 18 Norte 0 939.5 1.3 94
2020-01-10 09:00:00 6.5 7 Norte 19 Noroeste 0 938.7 0.6 94
2020-01-10 08:00:00 6.7 8 Noroeste 17 Noroeste 0 938.4 0.5 94
2020-01-10 07:00:00 6.9 9 Noroeste 15 Noroeste 0 938.2 -0.4 94
2020-01-10 06:00:00 6.9 6 Noroeste 15 Noroeste 0 938.1 -0.4 94
2020-01-10 05:00:00 7.1 6 Noroeste 13 Noroeste 0 937.9 -0.8 93
2020-01-10 04:00:00 7.1 7 Noroeste 13 Sudoeste 0 938.6 -0.6 91
2020-01-10 03:00:00 7 6 Noroeste 13 Oeste 0 938.5 -0.7 86
2020-01-10 02:00:00 6.4 8 Noroeste 14 Oeste 0 938.7 -1.1 84
2020-01-10 01:00:00 5.6 7 Noroeste 13 Noroeste 0 939.2 -0.7 86
2020-01-10 00:00:00 6.4 5 Oeste 9 Noroeste 0 939.2 -0.3 81
2020-01-09 23:00:00 7.4 4 Noroeste 10 Oeste 0 939.8 0.3 81
2020-01-09 22:00:00 6.4 6 Oeste 8 Oeste 0 939.9 0.3 87
2020-01-09 21:00:00 6.6 5 Sur 11 Sur 0 939.5 0.4 84
2020-01-09 20:00:00 7.3 6 Sur 14 Sudeste 0 939.5 1.1 79
2020-01-09 19:00:00 9.1 3 Sudoeste 10 Sur 0 939.6 0.6 72
2020-01-09 18:00:00 11.7 5 Noroeste 12 Oeste 0 939.1 0.3 57
2020-01-09 17:00:00 12.8 3 Oeste 15 Noroeste 0 938.4 -0.8 49
2020-01-09 16:00:00 12.6 11 Noroeste 22 Noroeste 0 939 -1.1 48
2020-01-09 15:00:00 13.6 8 Oeste 20 Oeste 0 938.8 -2.1 50
2020-01-09 14:00:00 13.4 5 Sudoeste 11 Sudoeste 0 939.2 -1.5 54
2020-01-09 13:00:00 11.9 8 Oeste 18 Oeste 0 940.1 0.1 59
2020-01-09 12:00:00 11 7 Sur 15 Sur 0 940.9 1.2 66
2020-01-09 11:00:00 9.1 8 Sur 15 Sur 0 940.7 1.2 74
2020-01-09 10:00:00 6.6 9 Sur 17 Sur 0 940 0.6 82
2020-01-09 09:00:00 4.4 9 Sur 15 Sur 0 939.7 0.3 83
2020-01-09 08:00:00 4.6 9 Sur 15 Sur 0 939.5 -0.3 81
2020-01-09 07:00:00 4.7 8 Sur 16 Sur 0 939.4 -0.6 77
2020-01-09 06:00:00 5.3 9 Sur 15 Sur 0 939.4 -0.8 75
2020-01-09 05:00:00 5.3 8 Sur 14 Sur 0 939.8 -0.5 75
2020-01-09 04:00:00 5.4 8 Sur 13 Sudoeste 0 940 -0.4 73
2020-01-09 03:00:00 6.1 6 Sudoeste 10 Sudoeste 0 940.2 -0.3 67
2020-01-09 02:00:00 6.9 5 Sudoeste 8 Sur 0 940.3 -0.3 65
2020-01-09 01:00:00 7.3 4 Oeste 8 Sur 0 940.4 -0.2 59
2020-01-09 00:00:00 8.5 6 Oeste 10 Noroeste 0 940.5 -0.1 51
2020-01-08 23:00:00 9.4 6 Noroeste 12 Noroeste 0 940.6 0 53
2020-01-08 22:00:00 9.7 7 Norte 13 Norte 0 940.6 0.2 57
2020-01-08 21:00:00 10.1 7 Norte 15 Noroeste 0 940.6 0.3 56
2020-01-08 20:00:00 10.6 9 Noroeste 14 Noroeste 0 940.6 0.5 52
2020-01-08 19:00:00 11.2 7 Norte 10 Norte 0 940.4 0.2 49
2020-01-08 18:00:00 13.9 6 Noroeste 13 Norte 0 940.3 0 50
2020-01-08 17:00:00 15.5 8 Noroeste 14 Noroeste 0 940.1 -0.7 42
2020-01-08 16:00:00 16.1 7 Noroeste 15 Oeste 0 940.2 -1.3 43
2020-01-08 15:00:00 16.8 6 Noroeste 13 Noroeste 0 940.3 -1.9 43
2020-01-08 14:00:00 17.3 6 Oeste 11 Oeste 0 940.8 -1.5 30
2020-01-08 13:00:00 16.7 3 Sudoeste 9 Sudoeste 0 941.5 -0.4 30
2020-01-08 12:00:00 15.2 3 Sudoeste 9 Sudoeste 0 942.2 0.9 34
2020-01-08 11:00:00 12.2 6 Sudoeste 10 Sur 0 942.3 1 39
2020-01-08 10:00:00 9 5 Sur 10 Sur 0 941.9 0.6 59
2020-01-08 09:00:00 6.2 8 Sur 12 Sur 0 941.3 0 59
2020-01-08 08:00:00 6.2 5 Este 8 Norte 0 941.3 -0.1 49
2020-01-08 07:00:00 7.1 6 Norte 9 Norte 0 941.3 -0.5 45
2020-01-08 06:00:00 7 6 Norte 10 Norte 0 941.3 -0.6 46
2020-01-08 05:00:00 7.3 5 Norte 11 Norte 0 941.4 -0.6 53
2020-01-08 04:00:00 6.6 6 Norte 12 Norte 0 941.8 -0.5 70
2020-01-08 03:00:00 7.1 7 Norte 13 Norte 0 941.9 -0.8 73
2020-01-08 02:00:00 6.7 8 Noroeste 14 Noroeste 0 942 -0.9 77
2020-01-08 01:00:00 7.4 7 Norte 12 Norte 0 942.3 -0.6 71
2020-01-08 00:00:00 7.8 9 Noroeste 15 Noroeste 0 942.7 -0.2 72
2020-01-07 23:00:00 8.4 8 Noroeste 15 Noroeste 0 942.9 0.1 68
2020-01-07 22:00:00 8.4 6 Norte 14 Noroeste 0 942.9 0.2 69
2020-01-07 21:00:00 9.3 6 Norte 12 Norte 0 942.9 0.5 67
2020-01-07 20:00:00 9.5 6 Norte 13 Noroeste 0 942.8 0.5 68
2020-01-07 19:00:00 10.4 6 Norte 14 Noroeste 0 942.7 0.4 64
2020-01-07 18:00:00 13.1 8 Noroeste 13 Noroeste 0 942.4 0.1 49
2020-01-07 17:00:00 15.2 5 Noroeste 16 Noroeste 0 942.3 -0.5 44
2020-01-07 16:00:00 15.7 9 Noroeste 16 Noroeste 0 942.3 -1.2 38
2020-01-07 15:00:00 15.9 6 Noroeste 13 Noroeste 0 942.3 -1.7 36
2020-01-07 14:00:00 15.5 5 Noroeste 11 Noroeste 0 942.8 -1.2 33
2020-01-07 13:00:00 14.5 4 Norte 10 Norte 0 943.5 0 36
2020-01-07 12:00:00 13.7 3 Norte 9 Norte 0 944 0.9 44
2020-01-07 11:00:00 12.5 3 Nordeste 6 Este 0 944 1.1 52
2020-01-07 10:00:00 9.1 4 Nordeste 8 Norte 0 943.5 0.9 61
2020-01-07 09:00:00 5.1 4 Norte 8 Noroeste 0 943.1 0.6 76
2020-01-07 08:00:00 6.6 7 Sudoeste 10 Sudoeste 0 942.9 0 68
2020-01-07 07:00:00 6 6 Sur 13 Este 0 942.6 -0.3 76
2020-01-07 06:00:00 6 3 Sudeste 22 Nordeste 0 942.5 -0.1 72
2020-01-07 05:00:00 5.6 8 Norte 20 Nordeste 0 942.9 0.3 81
2020-01-07 04:00:00 5.4 7 Nordeste 16 Norte 0 942.9 0.1 80
2020-01-07 03:00:00 7.6 6 Norte 11 Norte 0 942.6 -0.3 70
2020-01-07 02:00:00 7.6 4 Nordeste 7 Nordeste 0 942.6 -0.3 73
2020-01-07 01:00:00 6.6 6 Norte 10 Noroeste 0 942.8 0.2 76
2020-01-07 00:00:00 6.6 6 Norte 14 Noroeste 0 942.9 0.9 76
2020-01-06 23:00:00 7.2 7 Noroeste 17 Noroeste 0 942.9 1.2 74
2020-01-06 22:00:00 7.8 7 Noroeste 12 Noroeste 0 942.6 1.4 71
2020-01-06 21:00:00 7.9 6 Norte 12 Este 0 942 0.9 71
2020-01-06 20:00:00 8.7 6 Noroeste 9 Noroeste 0 941.7 1.2 67
2020-01-06 19:00:00 9.4 6 Noroeste 9 Noroeste 0 941.2 0.9 64
2020-01-06 18:00:00 11.9 6 Noroeste 12 Noroeste 0 941.1 0.6 55
2020-01-06 17:00:00 13.4 6 Noroeste 10 Noroeste 0 940.5 -0.4 52
2020-01-06 16:00:00 13.8 4 Oeste 11 Oeste 0 940.3 -1.2 49
2020-01-06 15:00:00 13.3 6 Noroeste 13 Oeste 0 940.5 -1.6 54
2020-01-06 14:00:00 12.9 6 Noroeste 15 Noroeste 0 940.9 -1.1 53
2020-01-06 13:00:00 12.8 3 Noroeste 10 Oeste 0 941.5 0 59
2020-01-06 12:00:00 12.8 3 Sudoeste 8 Sudoeste 0 942.1 1.1 58
2020-01-06 11:00:00 11.1 0 Calma 4 Oeste 0 942 1.6 66
2020-01-06 10:00:00 7.4 0 Calma 5 Sudeste 0 941.5 1.4 84